sensor_id;sensor_type;location;lat;lon;timestamp;P1;durP1;ratioP1;P2;durP2;ratioP2
15246;SDS011;7726;48.820;9.248;2023-04-24T00:01:22;0.65;;;0.60;;
15246;SDS011;7726;48.820;9.248;2023-04-24T00:03:49;0.73;;;0.73;;
15246;SDS011;7726;48.820;9.248;2023-04-24T00:06:16;0.70;;;0.70;;
15246;SDS011;7726;48.820;9.248;2023-04-24T00:08:43;1.27;;;0.73;;
15246;SDS011;7726;48.820;9.248;2023-04-24T00:11:10;1.27;;;0.70;;
15246;SDS011;7726;48.820;9.248;2023-04-24T00:13:39;0.63;;;0.63;;
15246;SDS011;7726;48.820;9.248;2023-04-24T00:16:06;1.90;;;0.88;;
15246;SDS011;7726;48.820;9.248;2023-04-24T00:18:33;1.53;;;0.80;;
15246;SDS011;7726;48.820;9.248;2023-04-24T00:21:00;0.65;;;0.65;;
15246;SDS011;7726;48.820;9.248;2023-04-24T00:23:27;1.60;;;0.88;;
15246;SDS011;7726;48.820;9.248;2023-04-24T00:25:55;0.52;;;0.50;;
15246;SDS011;7726;48.820;9.248;2023-04-24T00:28:22;0.70;;;0.70;;
15246;SDS011;7726;48.820;9.248;2023-04-24T00:30:50;0.60;;;0.60;;
15246;SDS011;7726;48.820;9.248;2023-04-24T00:33:17;1.25;;;0.70;;
15246;SDS011;7726;48.820;9.248;2023-04-24T00:35:45;1.38;;;0.63;;
15246;SDS011;7726;48.820;9.248;2023-04-24T00:38:12;2.08;;;0.80;;
15246;SDS011;7726;48.820;9.248;2023-04-24T00:40:39;0.82;;;0.60;;
15246;SDS011;7726;48.820;9.248;2023-04-24T00:43:06;0.75;;;0.60;;
15246;SDS011;7726;48.820;9.248;2023-04-24T00:45:33;2.92;;;0.90;;
15246;SDS011;7726;48.820;9.248;2023-04-24T00:48:02;1.15;;;0.85;;
15246;SDS011;7726;48.820;9.248;2023-04-24T00:50:29;0.43;;;0.43;;
15246;SDS011;7726;48.820;9.248;2023-04-24T00:52:57;0.75;;;0.50;;
15246;SDS011;7726;48.820;9.248;2023-04-24T00:55:24;2.67;;;0.70;;
15246;SDS011;7726;48.820;9.248;2023-04-24T00:57:51;0.73;;;0.73;;
15246;SDS011;7726;48.820;9.248;2023-04-24T01:00:19;1.00;;;0.60;;
15246;SDS011;7726;48.820;9.248;2023-04-24T01:02:46;1.27;;;0.50;;
15246;SDS011;7726;48.820;9.248;2023-04-24T01:05:15;2.13;;;0.82;;
15246;SDS011;7726;48.820;9.248;2023-04-24T01:07:45;4.47;;;0.50;;
15246;SDS011;7726;48.820;9.248;2023-04-24T01:10:14;0.52;;;0.40;;
15246;SDS011;7726;48.820;9.248;2023-04-24T01:12:42;0.65;;;0.60;;
15246;SDS011;7726;48.820;9.248;2023-04-24T01:15:10;0.60;;;0.60;;
15246;SDS011;7726;48.820;9.248;2023-04-24T01:17:37;1.42;;;0.77;;
15246;SDS011;7726;48.820;9.248;2023-04-24T01:20:05;1.23;;;0.82;;
15246;SDS011;7726;48.820;9.248;2023-04-24T01:22:34;1.10;;;0.60;;
15246;SDS011;7726;48.820;9.248;2023-04-24T01:25:01;2.78;;;0.60;;
15246;SDS011;7726;48.820;9.248;2023-04-24T01:27:28;0.60;;;0.55;;
15246;SDS011;7726;48.820;9.248;2023-04-24T01:29:56;1.35;;;0.63;;
15246;SDS011;7726;48.820;9.248;2023-04-24T01:32:25;0.70;;;0.68;;
15246;SDS011;7726;48.820;9.248;2023-04-24T01:34:52;2.92;;;0.90;;
15246;SDS011;7726;48.820;9.248;2023-04-24T01:37:20;7.50;;;0.93;;
15246;SDS011;7726;48.820;9.248;2023-04-24T01:39:48;0.82;;;0.73;;
15246;SDS011;7726;48.820;9.248;2023-04-24T01:42:16;0.77;;;0.52;;
15246;SDS011;7726;48.820;9.248;2023-04-24T01:44:43;0.50;;;0.50;;
15246;SDS011;7726;48.820;9.248;2023-04-24T01:47:10;1.85;;;0.77;;
15246;SDS011;7726;48.820;9.248;2023-04-24T01:49:37;0.60;;;0.60;;
15246;SDS011;7726;48.820;9.248;2023-04-24T01:52:05;2.30;;;0.75;;
15246;SDS011;7726;48.820;9.248;2023-04-24T01:54:32;1.25;;;0.75;;
15246;SDS011;7726;48.820;9.248;2023-04-24T01:57:01;0.80;;;0.68;;
15246;SDS011;7726;48.820;9.248;2023-04-24T01:59:28;1.60;;;0.70;;
15246;SDS011;7726;48.820;9.248;2023-04-24T02:01:55;2.40;;;0.70;;
15246;SDS011;7726;48.820;9.248;2023-04-24T02:04:22;3.60;;;0.80;;
15246;SDS011;7726;48.820;9.248;2023-04-24T02:06:49;1.00;;;0.70;;
15246;SDS011;7726;48.820;9.248;2023-04-24T02:09:16;0.80;;;0.50;;
15246;SDS011;7726;48.820;9.248;2023-04-24T02:11:44;1.65;;;0.60;;
15246;SDS011;7726;48.820;9.248;2023-04-24T02:14:12;3.22;;;0.80;;
15246;SDS011;7726;48.820;9.248;2023-04-24T02:16:39;2.95;;;0.77;;
15246;SDS011;7726;48.820;9.248;2023-04-24T02:19:06;1.13;;;0.60;;
15246;SDS011;7726;48.820;9.248;2023-04-24T02:21:33;1.02;;;0.73;;
15246;SDS011;7726;48.820;9.248;2023-04-24T02:24:01;0.60;;;0.60;;
15246;SDS011;7726;48.820;9.248;2023-04-24T02:26:28;0.87;;;0.70;;
15246;SDS011;7726;48.820;9.248;2023-04-24T02:28:56;0.47;;;0.47;;
15246;SDS011;7726;48.820;9.248;2023-04-24T02:31:25;2.87;;;0.90;;
15246;SDS011;7726;48.820;9.248;2023-04-24T02:33:52;1.03;;;0.67;;
15246;SDS011;7726;48.820;9.248;2023-04-24T02:36:19;0.83;;;0.57;;
15246;SDS011;7726;48.820;9.248;2023-04-24T02:38:46;2.07;;;0.73;;
15246;SDS011;7726;48.820;9.248;2023-04-24T02:41:13;3.23;;;0.90;;
15246;SDS011;7726;48.820;9.248;2023-04-24T02:43:41;1.27;;;0.73;;
15246;SDS011;7726;48.820;9.248;2023-04-24T02:46:08;1.27;;;0.90;;
15246;SDS011;7726;48.820;9.248;2023-04-24T02:48:36;2.72;;;0.90;;
15246;SDS011;7726;48.820;9.248;2023-04-24T02:51:03;1.70;;;0.77;;
15246;SDS011;7726;48.820;9.248;2023-04-24T02:53:31;2.03;;;0.80;;
15246;SDS011;7726;48.820;9.248;2023-04-24T02:55:58;1.13;;;0.80;;
15246;SDS011;7726;48.820;9.248;2023-04-24T02:58:25;2.43;;;0.80;;
15246;SDS011;7726;48.820;9.248;2023-04-24T03:00:53;1.42;;;0.88;;
15246;SDS011;7726;48.820;9.248;2023-04-24T03:03:21;1.67;;;0.70;;
15246;SDS011;7726;48.820;9.248;2023-04-24T03:05:50;1.38;;;0.77;;
15246;SDS011;7726;48.820;9.248;2023-04-24T03:08:17;2.22;;;1.00;;
15246;SDS011;7726;48.820;9.248;2023-04-24T03:10:44;0.60;;;0.60;;
15246;SDS011;7726;48.820;9.248;2023-04-24T03:13:11;1.03;;;0.73;;
15246;SDS011;7726;48.820;9.248;2023-04-24T03:15:38;0.95;;;0.90;;
15246;SDS011;7726;48.820;9.248;2023-04-24T03:18:05;0.82;;;0.80;;
15246;SDS011;7726;48.820;9.248;2023-04-24T03:20:33;0.60;;;0.60;;
15246;SDS011;7726;48.820;9.248;2023-04-24T03:23:03;1.53;;;0.97;;
15246;SDS011;7726;48.820;9.248;2023-04-24T03:25:30;1.08;;;0.80;;
15246;SDS011;7726;48.820;9.248;2023-04-24T03:27:57;2.33;;;0.90;;
15246;SDS011;7726;48.820;9.248;2023-04-24T03:30:24;1.40;;;0.70;;
15246;SDS011;7726;48.820;9.248;2023-04-24T03:32:51;0.97;;;0.80;;
15246;SDS011;7726;48.820;9.248;2023-04-24T03:35:19;1.50;;;0.70;;
15246;SDS011;7726;48.820;9.248;2023-04-24T03:37:47;1.37;;;0.90;;
15246;SDS011;7726;48.820;9.248;2023-04-24T03:40:15;0.70;;;0.70;;
15246;SDS011;7726;48.820;9.248;2023-04-24T03:42:42;1.48;;;0.90;;
15246;SDS011;7726;48.820;9.248;2023-04-24T03:45:09;1.30;;;0.70;;
15246;SDS011;7726;48.820;9.248;2023-04-24T03:47:37;0.60;;;0.60;;
15246;SDS011;7726;48.820;9.248;2023-04-24T03:50:04;1.80;;;0.83;;
15246;SDS011;7726;48.820;9.248;2023-04-24T03:52:32;1.23;;;0.90;;
15246;SDS011;7726;48.820;9.248;2023-04-24T03:54:59;2.77;;;1.13;;
15246;SDS011;7726;48.820;9.248;2023-04-24T03:57:27;1.13;;;0.70;;
15246;SDS011;7726;48.820;9.248;2023-04-24T03:59:54;1.53;;;0.80;;
15246;SDS011;7726;48.820;9.248;2023-04-24T04:02:21;1.55;;;0.90;;
15246;SDS011;7726;48.820;9.248;2023-04-24T04:04:49;1.20;;;1.00;;
15246;SDS011;7726;48.820;9.248;2023-04-24T04:07:16;1.47;;;0.80;;
15246;SDS011;7726;48.820;9.248;2023-04-24T04:09:43;1.17;;;0.90;;
15246;SDS011;7726;48.820;9.248;2023-04-24T04:12:10;3.17;;;1.00;;
15246;SDS011;7726;48.820;9.248;2023-04-24T04:14:39;1.00;;;0.90;;
15246;SDS011;7726;48.820;9.248;2023-04-24T04:17:06;1.20;;;0.80;;
15246;SDS011;7726;48.820;9.248;2023-04-24T04:19:33;3.23;;;1.47;;
15246;SDS011;7726;48.820;9.248;2023-04-24T04:22:00;4.23;;;1.13;;
15246;SDS011;7726;48.820;9.248;2023-04-24T04:24:27;2.23;;;1.20;;
15246;SDS011;7726;48.820;9.248;2023-04-24T04:26:54;1.40;;;1.30;;
15246;SDS011;7726;48.820;9.248;2023-04-24T04:29:23;2.90;;;1.10;;
15246;SDS011;7726;48.820;9.248;2023-04-24T04:31:52;0.97;;;0.87;;
15246;SDS011;7726;48.820;9.248;2023-04-24T04:34:20;0.70;;;0.70;;
15246;SDS011;7726;48.820;9.248;2023-04-24T04:36:47;2.77;;;0.87;;
15246;SDS011;7726;48.820;9.248;2023-04-24T04:39:15;1.37;;;0.80;;
15246;SDS011;7726;48.820;9.248;2023-04-24T04:41:43;2.00;;;0.70;;
15246;SDS011;7726;48.820;9.248;2023-04-24T04:44:11;0.83;;;0.80;;
15246;SDS011;7726;48.820;9.248;2023-04-24T04:46:39;1.43;;;0.70;;
15246;SDS011;7726;48.820;9.248;2023-04-24T04:49:08;1.40;;;1.30;;
15246;SDS011;7726;48.820;9.248;2023-04-24T04:51:35;2.83;;;1.07;;
15246;SDS011;7726;48.820;9.248;2023-04-24T04:54:03;2.20;;;0.90;;
15246;SDS011;7726;48.820;9.248;2023-04-24T04:56:30;1.03;;;0.90;;
15246;SDS011;7726;48.820;9.248;2023-04-24T04:58:57;1.60;;;1.00;;
15246;SDS011;7726;48.820;9.248;2023-04-24T05:01:24;0.90;;;0.90;;
15246;SDS011;7726;48.820;9.248;2023-04-24T05:03:52;1.10;;;1.00;;
15246;SDS011;7726;48.820;9.248;2023-04-24T05:06:21;1.13;;;1.13;;
15246;SDS011;7726;48.820;9.248;2023-04-24T05:08:48;1.23;;;0.80;;
15246;SDS011;7726;48.820;9.248;2023-04-24T05:11:16;1.10;;;1.00;;
15246;SDS011;7726;48.820;9.248;2023-04-24T05:13:43;1.47;;;0.87;;
15246;SDS011;7726;48.820;9.248;2023-04-24T05:16:10;1.00;;;0.90;;
15246;SDS011;7726;48.820;9.248;2023-04-24T05:18:37;1.20;;;0.90;;
15246;SDS011;7726;48.820;9.248;2023-04-24T05:21:04;2.73;;;1.00;;
15246;SDS011;7726;48.820;9.248;2023-04-24T05:23:33;1.57;;;0.90;;
15246;SDS011;7726;48.820;9.248;2023-04-24T05:26:00;0.97;;;0.97;;
15246;SDS011;7726;48.820;9.248;2023-04-24T05:28:27;1.40;;;1.00;;
15246;SDS011;7726;48.820;9.248;2023-04-24T05:30:54;1.30;;;0.90;;
15246;SDS011;7726;48.820;9.248;2023-04-24T05:33:21;1.50;;;1.00;;
15246;SDS011;7726;48.820;9.248;2023-04-24T05:35:48;2.07;;;0.90;;
15246;SDS011;7726;48.820;9.248;2023-04-24T05:38:16;1.23;;;0.90;;
15246;SDS011;7726;48.820;9.248;2023-04-24T05:40:45;1.30;;;0.80;;
15246;SDS011;7726;48.820;9.248;2023-04-24T05:43:13;0.98;;;0.80;;
15246;SDS011;7726;48.820;9.248;2023-04-24T05:45:40;0.93;;;0.80;;
15246;SDS011;7726;48.820;9.248;2023-04-24T05:48:07;0.97;;;0.87;;
15246;SDS011;7726;48.820;9.248;2023-04-24T05:50:34;0.80;;;0.80;;
15246;SDS011;7726;48.820;9.248;2023-04-24T05:53:01;1.30;;;1.20;;
15246;SDS011;7726;48.820;9.248;2023-04-24T05:55:29;1.00;;;1.00;;
15246;SDS011;7726;48.820;9.248;2023-04-24T05:57:58;1.23;;;1.00;;
15246;SDS011;7726;48.820;9.248;2023-04-24T06:00:25;1.00;;;1.00;;
15246;SDS011;7726;48.820;9.248;2023-04-24T06:02:53;1.53;;;1.30;;
15246;SDS011;7726;48.820;9.248;2023-04-24T06:05:20;1.93;;;1.20;;
15246;SDS011;7726;48.820;9.248;2023-04-24T06:07:47;1.00;;;1.00;;
15246;SDS011;7726;48.820;9.248;2023-04-24T06:10:15;1.20;;;0.90;;
15246;SDS011;7726;48.820;9.248;2023-04-24T06:12:42;0.90;;;0.90;;
15246;SDS011;7726;48.820;9.248;2023-04-24T06:15:11;1.10;;;1.00;;
15246;SDS011;7726;48.820;9.248;2023-04-24T06:17:38;1.13;;;1.03;;
15246;SDS011;7726;48.820;9.248;2023-04-24T06:20:06;1.27;;;1.20;;
15246;SDS011;7726;48.820;9.248;2023-04-24T06:22:33;1.15;;;1.00;;
15246;SDS011;7726;48.820;9.248;2023-04-24T06:25:01;1.15;;;1.10;;
15246;SDS011;7726;48.820;9.248;2023-04-24T06:27:28;1.30;;;1.20;;
15246;SDS011;7726;48.820;9.248;2023-04-24T06:29:55;1.20;;;1.20;;
15246;SDS011;7726;48.820;9.248;2023-04-24T06:32:24;1.73;;;1.00;;
15246;SDS011;7726;48.820;9.248;2023-04-24T06:34:52;1.10;;;1.00;;
15246;SDS011;7726;48.820;9.248;2023-04-24T06:37:19;1.77;;;1.67;;
15246;SDS011;7726;48.820;9.248;2023-04-24T06:39:47;1.73;;;1.23;;
15246;SDS011;7726;48.820;9.248;2023-04-24T06:42:14;1.10;;;1.10;;
15246;SDS011;7726;48.820;9.248;2023-04-24T06:44:41;1.67;;;1.13;;
15246;SDS011;7726;48.820;9.248;2023-04-24T06:47:09;1.13;;;1.13;;
15246;SDS011;7726;48.820;9.248;2023-04-24T06:49:39;1.02;;;1.00;;
15246;SDS011;7726;48.820;9.248;2023-04-24T06:52:07;1.55;;;1.00;;
15246;SDS011;7726;48.820;9.248;2023-04-24T06:54:34;3.10;;;1.20;;
15246;SDS011;7726;48.820;9.248;2023-04-24T06:57:01;0.90;;;0.90;;
15246;SDS011;7726;48.820;9.248;2023-04-24T06:59:28;1.30;;;1.20;;
15246;SDS011;7726;48.820;9.248;2023-04-24T07:01:56;1.33;;;1.10;;
15246;SDS011;7726;48.820;9.248;2023-04-24T07:04:23;1.33;;;1.17;;
15246;SDS011;7726;48.820;9.248;2023-04-24T07:06:52;1.20;;;1.08;;
15246;SDS011;7726;48.820;9.248;2023-04-24T07:09:20;2.17;;;1.17;;
15246;SDS011;7726;48.820;9.248;2023-04-24T07:11:48;1.33;;;1.23;;
15246;SDS011;7726;48.820;9.248;2023-04-24T07:14:16;2.15;;;1.25;;
15246;SDS011;7726;48.820;9.248;2023-04-24T07:16:43;2.10;;;1.30;;
15246;SDS011;7726;48.820;9.248;2023-04-24T07:19:11;1.52;;;1.30;;
15246;SDS011;7726;48.820;9.248;2023-04-24T07:21:38;1.55;;;1.45;;
15246;SDS011;7726;48.820;9.248;2023-04-24T07:24:06;1.40;;;1.30;;
15246;SDS011;7726;48.820;9.248;2023-04-24T07:26:35;1.42;;;1.30;;
15246;SDS011;7726;48.820;9.248;2023-04-24T07:29:03;2.30;;;1.30;;
15246;SDS011;7726;48.820;9.248;2023-04-24T07:31:30;1.55;;;1.23;;
15246;SDS011;7726;48.820;9.248;2023-04-24T07:33:57;2.55;;;1.50;;
15246;SDS011;7726;48.820;9.248;2023-04-24T07:36:25;1.25;;;1.25;;
15246;SDS011;7726;48.820;9.248;2023-04-24T07:38:53;3.63;;;1.30;;
15246;SDS011;7726;48.820;9.248;2023-04-24T07:41:23;1.40;;;1.30;;
15246;SDS011;7726;48.820;9.248;2023-04-24T07:43:50;1.55;;;1.20;;
15246;SDS011;7726;48.820;9.248;2023-04-24T07:46:17;1.95;;;1.00;;
15246;SDS011;7726;48.820;9.248;2023-04-24T07:48:44;1.10;;;1.10;;
15246;SDS011;7726;48.820;9.248;2023-04-24T07:51:13;1.25;;;1.25;;
15246;SDS011;7726;48.820;9.248;2023-04-24T07:53:40;2.35;;;1.10;;
15246;SDS011;7726;48.820;9.248;2023-04-24T07:56:07;1.13;;;1.02;;
15246;SDS011;7726;48.820;9.248;2023-04-24T07:58:36;2.85;;;1.17;;
15246;SDS011;7726;48.820;9.248;2023-04-24T08:01:03;1.77;;;0.93;;
15246;SDS011;7726;48.820;9.248;2023-04-24T08:03:30;1.40;;;0.95;;
15246;SDS011;7726;48.820;9.248;2023-04-24T08:05:57;2.50;;;1.10;;
15246;SDS011;7726;48.820;9.248;2023-04-24T08:08:24;2.42;;;1.10;;
15246;SDS011;7726;48.820;9.248;2023-04-24T08:10:52;1.40;;;1.30;;
15246;SDS011;7726;48.820;9.248;2023-04-24T08:13:19;2.00;;;1.13;;
15246;SDS011;7726;48.820;9.248;2023-04-24T08:15:48;1.30;;;1.00;;
15246;SDS011;7726;48.820;9.248;2023-04-24T08:18:15;0.88;;;0.85;;
15246;SDS011;7726;48.820;9.248;2023-04-24T08:20:42;2.58;;;1.25;;
15246;SDS011;7726;48.820;9.248;2023-04-24T08:23:10;1.02;;;1.02;;
15246;SDS011;7726;48.820;9.248;2023-04-24T08:25:37;1.77;;;1.10;;
15246;SDS011;7726;48.820;9.248;2023-04-24T08:28:05;1.50;;;1.10;;
15246;SDS011;7726;48.820;9.248;2023-04-24T08:30:32;1.95;;;1.05;;
15246;SDS011;7726;48.820;9.248;2023-04-24T08:33:00;1.10;;;1.08;;
15246;SDS011;7726;48.820;9.248;2023-04-24T08:35:28;2.53;;;1.60;;
15246;SDS011;7726;48.820;9.248;2023-04-24T08:37:55;1.33;;;1.20;;
15246;SDS011;7726;48.820;9.248;2023-04-24T08:40:23;1.33;;;1.20;;
15246;SDS011;7726;48.820;9.248;2023-04-24T08:42:54;2.80;;;1.20;;
15246;SDS011;7726;48.820;9.248;2023-04-24T08:45:21;1.20;;;1.10;;
15246;SDS011;7726;48.820;9.248;2023-04-24T08:47:49;2.25;;;1.30;;
15246;SDS011;7726;48.820;9.248;2023-04-24T08:50:17;2.55;;;1.10;;
15246;SDS011;7726;48.820;9.248;2023-04-24T08:52:45;1.65;;;1.25;;
15246;SDS011;7726;48.820;9.248;2023-04-24T08:55:12;1.50;;;1.40;;
15246;SDS011;7726;48.820;9.248;2023-04-24T08:57:41;2.28;;;1.30;;
15246;SDS011;7726;48.820;9.248;2023-04-24T09:00:12;1.13;;;0.90;;
15246;SDS011;7726;48.820;9.248;2023-04-24T09:02:41;1.00;;;1.00;;
15246;SDS011;7726;48.820;9.248;2023-04-24T09:05:09;2.05;;;1.00;;
15246;SDS011;7726;48.820;9.248;2023-04-24T09:07:38;1.65;;;0.90;;
15246;SDS011;7726;48.820;9.248;2023-04-24T09:10:06;3.50;;;1.00;;
15246;SDS011;7726;48.820;9.248;2023-04-24T09:12:34;2.30;;;1.10;;
15246;SDS011;7726;48.820;9.248;2023-04-24T09:15:02;2.70;;;1.50;;
15246;SDS011;7726;48.820;9.248;2023-04-24T09:17:30;1.27;;;1.17;;
15246;SDS011;7726;48.820;9.248;2023-04-24T09:19:57;1.77;;;1.20;;
15246;SDS011;7726;48.820;9.248;2023-04-24T09:22:24;1.23;;;1.02;;
15246;SDS011;7726;48.820;9.248;2023-04-24T09:25:00;1.33;;;1.10;;
15246;SDS011;7726;48.820;9.248;2023-04-24T09:27:28;1.20;;;1.15;;
15246;SDS011;7726;48.820;9.248;2023-04-24T09:29:56;1.63;;;0.95;;
15246;SDS011;7726;48.820;9.248;2023-04-24T09:32:23;1.00;;;0.90;;
15246;SDS011;7726;48.820;9.248;2023-04-24T09:35:04;1.10;;;1.10;;
15246;SDS011;7726;48.820;9.248;2023-04-24T09:37:34;0.98;;;0.90;;
15246;SDS011;7726;48.820;9.248;2023-04-24T09:42:51;1.10;;;1.00;;
15246;SDS011;7726;48.820;9.248;2023-04-24T09:45:18;1.42;;;1.08;;
15246;SDS011;7726;48.820;9.248;2023-04-24T09:47:46;1.17;;;1.08;;
15246;SDS011;7726;48.820;9.248;2023-04-24T09:50:18;1.48;;;1.38;;
15246;SDS011;7726;48.820;9.248;2023-04-24T09:52:46;3.00;;;1.10;;
15246;SDS011;7726;48.820;9.248;2023-04-24T09:55:15;1.65;;;1.10;;
15246;SDS011;7726;48.820;9.248;2023-04-24T09:57:51;1.52;;;1.30;;
15246;SDS011;7726;48.820;9.248;2023-04-24T10:00:22;2.47;;;1.10;;
15246;SDS011;7726;48.820;9.248;2023-04-24T10:02:50;1.73;;;1.10;;
15246;SDS011;7726;48.820;9.248;2023-04-24T10:05:18;1.67;;;1.05;;
15246;SDS011;7726;48.820;9.248;2023-04-24T10:07:45;1.52;;;1.00;;
15246;SDS011;7726;48.820;9.248;2023-04-24T10:10:12;1.85;;;0.85;;
15246;SDS011;7726;48.820;9.248;2023-04-24T10:12:40;4.68;;;0.90;;
15246;SDS011;7726;48.820;9.248;2023-04-24T10:15:09;2.00;;;0.90;;
15246;SDS011;7726;48.820;9.248;2023-04-24T10:17:38;1.10;;;1.00;;
15246;SDS011;7726;48.820;9.248;2023-04-24T10:20:06;0.77;;;0.70;;
15246;SDS011;7726;48.820;9.248;2023-04-24T10:22:34;1.48;;;0.98;;
15246;SDS011;7726;48.820;9.248;2023-04-24T10:25:03;0.98;;;0.90;;
15246;SDS011;7726;48.820;9.248;2023-04-24T10:27:31;0.90;;;0.90;;
15246;SDS011;7726;48.820;9.248;2023-04-24T10:29:58;1.02;;;0.70;;
15246;SDS011;7726;48.820;9.248;2023-04-24T10:32:28;1.08;;;0.93;;
15246;SDS011;7726;48.820;9.248;2023-04-24T10:34:55;1.55;;;1.05;;
15246;SDS011;7726;48.820;9.248;2023-04-24T10:37:22;3.10;;;1.00;;
15246;SDS011;7726;48.820;9.248;2023-04-24T10:39:50;1.23;;;1.00;;
15246;SDS011;7726;48.820;9.248;2023-04-24T10:42:19;0.80;;;0.80;;
15246;SDS011;7726;48.820;9.248;2023-04-24T10:44:47;1.92;;;1.10;;
15246;SDS011;7726;48.820;9.248;2023-04-24T10:47:15;2.58;;;1.05;;
15246;SDS011;7726;48.820;9.248;2023-04-24T10:49:43;1.50;;;1.20;;
15246;SDS011;7726;48.820;9.248;2023-04-24T10:52:10;1.30;;;1.20;;
15246;SDS011;7726;48.820;9.248;2023-04-24T10:54:41;1.48;;;1.38;;
15246;SDS011;7726;48.820;9.248;2023-04-24T11:00:16;1.27;;;1.27;;
15246;SDS011;7726;48.820;9.248;2023-04-24T11:02:46;1.77;;;1.15;;
15246;SDS011;7726;48.820;9.248;2023-04-24T11:05:19;1.02;;;1.02;;
15246;SDS011;7726;48.820;9.248;2023-04-24T11:10:32;1.85;;;1.02;;
15246;SDS011;7726;48.820;9.248;2023-04-24T11:12:59;1.10;;;1.00;;
15246;SDS011;7726;48.820;9.248;2023-04-24T11:15:28;1.20;;;1.00;;
15246;SDS011;7726;48.820;9.248;2023-04-24T11:17:55;1.00;;;0.90;;
15246;SDS011;7726;48.820;9.248;2023-04-24T11:20:24;1.00;;;0.88;;
15246;SDS011;7726;48.820;9.248;2023-04-24T11:22:52;1.83;;;1.05;;
15246;SDS011;7726;48.820;9.248;2023-04-24T11:25:20;2.00;;;0.95;;
15246;SDS011;7726;48.820;9.248;2023-04-24T11:27:48;1.05;;;1.05;;
15246;SDS011;7726;48.820;9.248;2023-04-24T11:30:17;1.00;;;1.00;;
15246;SDS011;7726;48.820;9.248;2023-04-24T11:32:47;1.30;;;1.20;;
15246;SDS011;7726;48.820;9.248;2023-04-24T11:35:16;1.05;;;1.02;;
15246;SDS011;7726;48.820;9.248;2023-04-24T11:37:45;1.02;;;1.02;;
15246;SDS011;7726;48.820;9.248;2023-04-24T11:40:14;1.48;;;1.10;;
15246;SDS011;7726;48.820;9.248;2023-04-24T11:42:41;2.75;;;1.30;;
15246;SDS011;7726;48.820;9.248;2023-04-24T11:45:10;1.08;;;1.08;;
15246;SDS011;7726;48.820;9.248;2023-04-24T11:47:37;1.08;;;0.88;;
15246;SDS011;7726;48.820;9.248;2023-04-24T11:50:06;1.30;;;1.20;;
15246;SDS011;7726;48.820;9.248;2023-04-24T11:52:36;2.63;;;1.30;;
15246;SDS011;7726;48.820;9.248;2023-04-24T11:55:05;0.95;;;0.95;;
15246;SDS011;7726;48.820;9.248;2023-04-24T11:57:33;1.30;;;1.20;;
15246;SDS011;7726;48.820;9.248;2023-04-24T12:00:02;2.40;;;1.10;;
15246;SDS011;7726;48.820;9.248;2023-04-24T12:02:30;2.15;;;1.15;;
15246;SDS011;7726;48.820;9.248;2023-04-24T12:04:57;1.15;;;1.10;;
15246;SDS011;7726;48.820;9.248;2023-04-24T12:07:24;3.03;;;1.05;;
15246;SDS011;7726;48.820;9.248;2023-04-24T12:09:55;1.00;;;1.00;;
15246;SDS011;7726;48.820;9.248;2023-04-24T12:12:25;2.40;;;0.82;;
15246;SDS011;7726;48.820;9.248;2023-04-24T12:14:53;1.85;;;0.90;;
15246;SDS011;7726;48.820;9.248;2023-04-24T12:17:24;1.17;;;1.08;;
15246;SDS011;7726;48.820;9.248;2023-04-24T12:19:52;1.20;;;1.20;;
15246;SDS011;7726;48.820;9.248;2023-04-24T12:22:19;1.17;;;1.08;;
15246;SDS011;7726;48.820;9.248;2023-04-24T12:24:56;1.08;;;1.08;;
15246;SDS011;7726;48.820;9.248;2023-04-24T12:27:25;0.98;;;0.98;;
15246;SDS011;7726;48.820;9.248;2023-04-24T12:29:52;2.47;;;0.90;;
15246;SDS011;7726;48.820;9.248;2023-04-24T12:32:19;0.98;;;0.90;;
15246;SDS011;7726;48.820;9.248;2023-04-24T12:34:46;7.10;;;1.13;;
15246;SDS011;7726;48.820;9.248;2023-04-24T12:37:14;1.02;;;1.00;;
15246;SDS011;7726;48.820;9.248;2023-04-24T12:39:44;1.13;;;1.02;;
15246;SDS011;7726;48.820;9.248;2023-04-24T12:42:11;1.25;;;0.88;;
15246;SDS011;7726;48.820;9.248;2023-04-24T12:44:42;2.95;;;1.05;;
15246;SDS011;7726;48.820;9.248;2023-04-24T12:47:09;1.48;;;1.00;;
15246;SDS011;7726;48.820;9.248;2023-04-24T12:49:38;3.67;;;1.02;;
15246;SDS011;7726;48.820;9.248;2023-04-24T12:52:05;1.17;;;1.17;;
15246;SDS011;7726;48.820;9.248;2023-04-24T12:54:32;1.20;;;1.10;;
15246;SDS011;7726;48.820;9.248;2023-04-24T12:56:59;1.02;;;1.02;;
15246;SDS011;7726;48.820;9.248;2023-04-24T12:59:27;1.45;;;0.98;;
15246;SDS011;7726;48.820;9.248;2023-04-24T13:01:55;0.95;;;0.90;;
15246;SDS011;7726;48.820;9.248;2023-04-24T13:04:22;1.00;;;1.00;;
15246;SDS011;7726;48.820;9.248;2023-04-24T13:06:49;2.75;;;1.30;;
15246;SDS011;7726;48.820;9.248;2023-04-24T13:09:16;3.10;;;1.27;;
15246;SDS011;7726;48.820;9.248;2023-04-24T13:11:44;1.77;;;1.45;;
15246;SDS011;7726;48.820;9.248;2023-04-24T13:14:11;1.77;;;1.33;;
15246;SDS011;7726;48.820;9.248;2023-04-24T13:16:38;1.58;;;1.48;;
15246;SDS011;7726;48.820;9.248;2023-04-24T13:19:06;2.70;;;1.40;;
15246;SDS011;7726;48.820;9.248;2023-04-24T13:21:33;1.67;;;1.20;;
15246;SDS011;7726;48.820;9.248;2023-04-24T13:24:01;1.38;;;1.27;;
15246;SDS011;7726;48.820;9.248;2023-04-24T13:26:29;1.17;;;1.08;;
15246;SDS011;7726;48.820;9.248;2023-04-24T13:28:57;1.20;;;1.13;;
15246;SDS011;7726;48.820;9.248;2023-04-24T13:31:24;1.45;;;1.35;;
15246;SDS011;7726;48.820;9.248;2023-04-24T13:33:51;1.30;;;1.20;;
15246;SDS011;7726;48.820;9.248;2023-04-24T13:36:19;1.20;;;1.20;;
15246;SDS011;7726;48.820;9.248;2023-04-24T13:38:47;1.67;;;1.58;;
15246;SDS011;7726;48.820;9.248;2023-04-24T13:41:14;1.85;;;1.38;;
15246;SDS011;7726;48.820;9.248;2023-04-24T13:43:41;1.30;;;1.30;;
15246;SDS011;7726;48.820;9.248;2023-04-24T13:46:08;2.30;;;1.75;;
15246;SDS011;7726;48.820;9.248;2023-04-24T13:48:35;2.08;;;1.30;;
15246;SDS011;7726;48.820;9.248;2023-04-24T13:51:02;1.52;;;1.30;;
15246;SDS011;7726;48.820;9.248;2023-04-24T13:53:31;1.90;;;1.38;;
15246;SDS011;7726;48.820;9.248;2023-04-24T13:56:01;1.42;;;1.33;;
15246;SDS011;7726;48.820;9.248;2023-04-24T13:58:28;1.60;;;1.25;;
15246;SDS011;7726;48.820;9.248;2023-04-24T14:00:55;1.27;;;1.17;;
15246;SDS011;7726;48.820;9.248;2023-04-24T14:03:22;1.08;;;1.08;;
15246;SDS011;7726;48.820;9.248;2023-04-24T14:05:49;1.30;;;1.20;;
15246;SDS011;7726;48.820;9.248;2023-04-24T14:08:16;1.23;;;1.17;;
15246;SDS011;7726;48.820;9.248;2023-04-24T14:10:45;2.25;;;1.00;;
15246;SDS011;7726;48.820;9.248;2023-04-24T14:13:12;1.58;;;1.08;;
15246;SDS011;7726;48.820;9.248;2023-04-24T14:15:39;1.30;;;1.20;;
15246;SDS011;7726;48.820;9.248;2023-04-24T14:18:06;0.93;;;0.93;;
15246;SDS011;7726;48.820;9.248;2023-04-24T14:20:34;1.30;;;1.20;;
15246;SDS011;7726;48.820;9.248;2023-04-24T14:23:01;1.23;;;1.13;;
15246;SDS011;7726;48.820;9.248;2023-04-24T14:25:29;1.27;;;1.08;;
15246;SDS011;7726;48.820;9.248;2023-04-24T14:27:57;1.58;;;1.48;;
15246;SDS011;7726;48.820;9.248;2023-04-24T14:30:24;2.20;;;1.30;;
15246;SDS011;7726;48.820;9.248;2023-04-24T14:32:51;1.52;;;1.08;;
15246;SDS011;7726;48.820;9.248;2023-04-24T14:35:19;1.40;;;1.30;;
15246;SDS011;7726;48.820;9.248;2023-04-24T14:37:46;1.50;;;1.30;;
15246;SDS011;7726;48.820;9.248;2023-04-24T14:40:14;2.10;;;1.33;;
15246;SDS011;7726;48.820;9.248;2023-04-24T14:42:41;1.35;;;1.25;;
15246;SDS011;7726;48.820;9.248;2023-04-24T14:45:10;1.33;;;1.20;;
15246;SDS011;7726;48.820;9.248;2023-04-24T14:47:37;0.90;;;0.90;;
15246;SDS011;7726;48.820;9.248;2023-04-24T14:50:05;1.30;;;1.10;;
15246;SDS011;7726;48.820;9.248;2023-04-24T14:52:33;1.00;;;1.00;;
15246;SDS011;7726;48.820;9.248;2023-04-24T14:55:00;1.95;;;1.25;;
15246;SDS011;7726;48.820;9.248;2023-04-24T14:57:28;1.23;;;1.10;;
15246;SDS011;7726;48.820;9.248;2023-04-24T14:59:55;2.17;;;1.73;;
15246;SDS011;7726;48.820;9.248;2023-04-24T15:02:23;1.40;;;1.30;;
15246;SDS011;7726;48.820;9.248;2023-04-24T15:04:51;1.27;;;1.20;;
15246;SDS011;7726;48.820;9.248;2023-04-24T15:07:18;1.17;;;1.17;;
15246;SDS011;7726;48.820;9.248;2023-04-24T15:09:45;1.38;;;1.25;;
15246;SDS011;7726;48.820;9.248;2023-04-24T15:12:13;1.27;;;1.17;;